Terminal Aerodrome Forecast
Issued by NWS Kansas City/Pleasant Hill, MO

Home | Current Version | Previous Version | Text Only | Print | Product List | Glossary On
Versions: 1 2 3 4 5 6 7 8 9 10 11 12 13 14 15 16 17 18 19 20 21 22 23
000
FTUS43 KEAX 291738
TAFMCI
TAF
KMCI 291738Z 2918/3018 05012KT P6SM OVC019
     FM292100 08014KT P6SM -RA BKN015 OVC025
     FM300200 09010KT 6SM -SHRA BR VCTS BKN007CB OVC015
     FM300600 13011KT 5SM -SHRA BR OVC008
     FM301600 22010G20KT P6SM SCT009=

USA.gov is the U.S. government's official web portal to all federal, state and local government web resources and services.